sensor_id;sensor_type;location;lat;lon;timestamp;temperature;humidity
21682;DHT22;11002;48.256;10.084;2022-12-18T00:00:01;15.90;20.70
21682;DHT22;11002;48.256;10.084;2022-12-18T00:02:28;15.90;20.70
21682;DHT22;11002;48.256;10.084;2022-12-18T00:04:55;15.90;20.70
21682;DHT22;11002;48.256;10.084;2022-12-18T00:07:23;15.90;20.70
21682;DHT22;11002;48.256;10.084;2022-12-18T00:09:50;15.90;20.70
21682;DHT22;11002;48.256;10.084;2022-12-18T00:12:17;15.90;21.20
21682;DHT22;11002;48.256;10.084;2022-12-18T00:14:45;15.90;20.70
21682;DHT22;11002;48.256;10.084;2022-12-18T00:17:13;15.90;20.70
21682;DHT22;11002;48.256;10.084;2022-12-18T00:19:43;15.90;20.70
21682;DHT22;11002;48.256;10.084;2022-12-18T00:22:10;15.90;20.70
21682;DHT22;11002;48.256;10.084;2022-12-18T00:24:38;15.90;20.70
21682;DHT22;11002;48.256;10.084;2022-12-18T00:27:05;15.90;20.70
21682;DHT22;11002;48.256;10.084;2022-12-18T00:29:33;15.90;20.70
21682;DHT22;11002;48.256;10.084;2022-12-18T00:32:00;15.90;20.70
21682;DHT22;11002;48.256;10.084;2022-12-18T00:34:29;15.90;20.70
21682;DHT22;11002;48.256;10.084;2022-12-18T00:36:56;15.90;21.30
21682;DHT22;11002;48.256;10.084;2022-12-18T00:39:23;15.90;20.70
21682;DHT22;11002;48.256;10.084;2022-12-18T00:41:51;15.90;21.20
21682;DHT22;11002;48.256;10.084;2022-12-18T00:44:35;15.90;20.70
21682;DHT22;11002;48.256;10.084;2022-12-18T00:47:03;15.90;20.70
21682;DHT22;11002;48.256;10.084;2022-12-18T00:49:31;15.90;20.70
21682;DHT22;11002;48.256;10.084;2022-12-18T00:51:59;15.90;20.70
21682;DHT22;11002;48.256;10.084;2022-12-18T00:54:26;15.90;20.70
21682;DHT22;11002;48.256;10.084;2022-12-18T00:56:53;15.90;20.70
21682;DHT22;11002;48.256;10.084;2022-12-18T00:59:22;15.90;20.70
21682;DHT22;11002;48.256;10.084;2022-12-18T01:01:50;15.90;20.70
21682;DHT22;11002;48.256;10.084;2022-12-18T01:04:20;15.90;20.70
21682;DHT22;11002;48.256;10.084;2022-12-18T01:06:48;15.90;20.70
21682;DHT22;11002;48.256;10.084;2022-12-18T01:09:16;15.90;20.70
21682;DHT22;11002;48.256;10.084;2022-12-18T01:11:43;15.90;20.70
21682;DHT22;11002;48.256;10.084;2022-12-18T01:14:10;15.90;20.70
21682;DHT22;11002;48.256;10.084;2022-12-18T01:16:38;15.90;20.70
21682;DHT22;11002;48.256;10.084;2022-12-18T01:19:05;15.90;20.70
21682;DHT22;11002;48.256;10.084;2022-12-18T01:21:32;15.90;20.70
21682;DHT22;11002;48.256;10.084;2022-12-18T01:24:05;15.90;20.70
21682;DHT22;11002;48.256;10.084;2022-12-18T01:26:33;15.90;20.70
21682;DHT22;11002;48.256;10.084;2022-12-18T01:29:00;15.90;20.70
21682;DHT22;11002;48.256;10.084;2022-12-18T01:31:30;15.90;20.70
21682;DHT22;11002;48.256;10.084;2022-12-18T01:33:59;15.90;20.70
21682;DHT22;11002;48.256;10.084;2022-12-18T01:36:28;15.90;20.70
21682;DHT22;11002;48.256;10.084;2022-12-18T01:38:58;15.90;20.70
21682;DHT22;11002;48.256;10.084;2022-12-18T01:41:29;15.90;20.70
21682;DHT22;11002;48.256;10.084;2022-12-18T01:44:53;15.90;20.70
21682;DHT22;11002;48.256;10.084;2022-12-18T01:47:24;15.90;20.70
21682;DHT22;11002;48.256;10.084;2022-12-18T01:49:53;15.90;20.70
21682;DHT22;11002;48.256;10.084;2022-12-18T01:52:22;15.90;20.70
21682;DHT22;11002;48.256;10.084;2022-12-18T01:54:52;15.90;20.70
21682;DHT22;11002;48.256;10.084;2022-12-18T01:57:22;15.90;20.70
21682;DHT22;11002;48.256;10.084;2022-12-18T01:59:53;15.90;20.70
21682;DHT22;11002;48.256;10.084;2022-12-18T02:02:21;15.90;20.70
21682;DHT22;11002;48.256;10.084;2022-12-18T02:04:49;15.90;20.70
21682;DHT22;11002;48.256;10.084;2022-12-18T02:07:21;15.90;20.70
21682;DHT22;11002;48.256;10.084;2022-12-18T02:09:56;15.90;20.70
21682;DHT22;11002;48.256;10.084;2022-12-18T02:12:33;15.90;20.70
21682;DHT22;11002;48.256;10.084;2022-12-18T02:15:09;15.90;20.70
21682;DHT22;11002;48.256;10.084;2022-12-18T02:17:42;15.90;20.70
21682;DHT22;11002;48.256;10.084;2022-12-18T02:20:16;15.90;20.70
21682;DHT22;11002;48.256;10.084;2022-12-18T02:22:55;15.90;20.70
21682;DHT22;11002;48.256;10.084;2022-12-18T02:25:39;15.90;20.70
21682;DHT22;11002;48.256;10.084;2022-12-18T02:28:12;15.90;20.70
21682;DHT22;11002;48.256;10.084;2022-12-18T02:30:42;15.90;20.70
21682;DHT22;11002;48.256;10.084;2022-12-18T02:33:12;15.90;20.70
21682;DHT22;11002;48.256;10.084;2022-12-18T02:35:44;15.90;20.70
21682;DHT22;11002;48.256;10.084;2022-12-18T02:38:13;15.90;20.70
21682;DHT22;11002;48.256;10.084;2022-12-18T02:40:44;15.90;20.70
21682;DHT22;11002;48.256;10.084;2022-12-18T02:43:19;15.90;20.70
21682;DHT22;11002;48.256;10.084;2022-12-18T02:45:50;15.90;20.70
21682;DHT22;11002;48.256;10.084;2022-12-18T02:48:22;15.90;20.70
21682;DHT22;11002;48.256;10.084;2022-12-18T02:50:57;15.90;20.70
21682;DHT22;11002;48.256;10.084;2022-12-18T02:53:31;15.90;20.70
21682;DHT22;11002;48.256;10.084;2022-12-18T02:56:05;15.90;20.70
21682;DHT22;11002;48.256;10.084;2022-12-18T02:58:41;15.90;20.70
21682;DHT22;11002;48.256;10.084;2022-12-18T03:01:26;15.90;20.70
21682;DHT22;11002;48.256;10.084;2022-12-18T03:03:57;15.90;21.30
21682;DHT22;11002;48.256;10.084;2022-12-18T03:06:28;15.90;20.70
21682;DHT22;11002;48.256;10.084;2022-12-18T03:09:01;15.90;20.70
21682;DHT22;11002;48.256;10.084;2022-12-18T03:11:33;15.90;20.70
21682;DHT22;11002;48.256;10.084;2022-12-18T03:14:20;15.90;20.70
21682;DHT22;11002;48.256;10.084;2022-12-18T03:16:53;15.90;20.70
21682;DHT22;11002;48.256;10.084;2022-12-18T03:19:23;15.90;20.70
21682;DHT22;11002;48.256;10.084;2022-12-18T03:21:55;15.90;20.70
21682;DHT22;11002;48.256;10.084;2022-12-18T03:24:26;15.90;20.70
21682;DHT22;11002;48.256;10.084;2022-12-18T03:27:00;15.90;20.70
21682;DHT22;11002;48.256;10.084;2022-12-18T03:29:35;15.90;20.70
21682;DHT22;11002;48.256;10.084;2022-12-18T03:32:07;15.90;20.70
21682;DHT22;11002;48.256;10.084;2022-12-18T03:34:39;15.90;20.70
21682;DHT22;11002;48.256;10.084;2022-12-18T03:37:09;15.90;20.70
21682;DHT22;11002;48.256;10.084;2022-12-18T03:39:37;15.90;20.70
21682;DHT22;11002;48.256;10.084;2022-12-18T03:42:08;15.90;20.70
21682;DHT22;11002;48.256;10.084;2022-12-18T03:44:46;15.90;20.70
21682;DHT22;11002;48.256;10.084;2022-12-18T03:47:23;15.90;20.70
21682;DHT22;11002;48.256;10.084;2022-12-18T03:49:57;15.90;20.70
21682;DHT22;11002;48.256;10.084;2022-12-18T03:52:35;15.90;20.70
21682;DHT22;11002;48.256;10.084;2022-12-18T03:55:05;15.90;20.70
21682;DHT22;11002;48.256;10.084;2022-12-18T03:57:34;15.90;20.70
21682;DHT22;11002;48.256;10.084;2022-12-18T04:00:08;15.90;20.70
21682;DHT22;11002;48.256;10.084;2022-12-18T04:02:47;15.90;21.10
21682;DHT22;11002;48.256;10.084;2022-12-18T04:05:25;15.90;20.70
21682;DHT22;11002;48.256;10.084;2022-12-18T04:07:53;15.90;20.70
21682;DHT22;11002;48.256;10.084;2022-12-18T04:10:22;15.90;20.70
21682;DHT22;11002;48.256;10.084;2022-12-18T04:12:50;15.90;20.70
21682;DHT22;11002;48.256;10.084;2022-12-18T04:15:19;15.90;20.70
21682;DHT22;11002;48.256;10.084;2022-12-18T04:17:48;15.90;20.70
21682;DHT22;11002;48.256;10.084;2022-12-18T04:20:19;15.90;20.70
21682;DHT22;11002;48.256;10.084;2022-12-18T04:22:47;15.90;20.70
21682;DHT22;11002;48.256;10.084;2022-12-18T04:25:15;15.90;20.70
21682;DHT22;11002;48.256;10.084;2022-12-18T04:27:54;15.90;20.70
21682;DHT22;11002;48.256;10.084;2022-12-18T04:30:23;15.90;20.70
21682;DHT22;11002;48.256;10.084;2022-12-18T04:32:51;15.90;20.70
21682;DHT22;11002;48.256;10.084;2022-12-18T04:35:20;15.90;20.70
21682;DHT22;11002;48.256;10.084;2022-12-18T04:37:47;15.90;20.70
21682;DHT22;11002;48.256;10.084;2022-12-18T04:40:15;15.90;20.70
21682;DHT22;11002;48.256;10.084;2022-12-18T04:42:46;15.90;20.70
21682;DHT22;11002;48.256;10.084;2022-12-18T04:45:13;15.90;20.70
21682;DHT22;11002;48.256;10.084;2022-12-18T04:47:42;15.90;20.70
21682;DHT22;11002;48.256;10.084;2022-12-18T04:50:09;15.90;20.70
21682;DHT22;11002;48.256;10.084;2022-12-18T04:52:37;15.80;20.60
21682;DHT22;11002;48.256;10.084;2022-12-18T04:55:05;15.90;20.70
21682;DHT22;11002;48.256;10.084;2022-12-18T04:57:32;15.80;20.60
21682;DHT22;11002;48.256;10.084;2022-12-18T04:59:59;15.80;20.60
21682;DHT22;11002;48.256;10.084;2022-12-18T05:02:27;15.90;20.70
21682;DHT22;11002;48.256;10.084;2022-12-18T05:04:56;15.90;20.70
21682;DHT22;11002;48.256;10.084;2022-12-18T05:07:23;15.90;20.70
21682;DHT22;11002;48.256;10.084;2022-12-18T05:09:50;15.90;20.70
21682;DHT22;11002;48.256;10.084;2022-12-18T05:12:18;15.90;20.70
21682;DHT22;11002;48.256;10.084;2022-12-18T05:14:45;15.90;20.70
21682;DHT22;11002;48.256;10.084;2022-12-18T05:17:12;15.90;20.70
21682;DHT22;11002;48.256;10.084;2022-12-18T05:19:40;15.90;20.70
21682;DHT22;11002;48.256;10.084;2022-12-18T05:22:09;15.90;20.70
21682;DHT22;11002;48.256;10.084;2022-12-18T05:24:36;15.80;20.60
21682;DHT22;11002;48.256;10.084;2022-12-18T05:27:03;15.90;20.70
21682;DHT22;11002;48.256;10.084;2022-12-18T05:29:31;15.90;20.70
21682;DHT22;11002;48.256;10.084;2022-12-18T05:31:58;15.90;20.70
21682;DHT22;11002;48.256;10.084;2022-12-18T05:34:25;15.90;20.70
21682;DHT22;11002;48.256;10.084;2022-12-18T05:36:53;15.80;20.60
21682;DHT22;11002;48.256;10.084;2022-12-18T05:39:21;15.90;20.70
21682;DHT22;11002;48.256;10.084;2022-12-18T05:41:49;15.90;20.70
21682;DHT22;11002;48.256;10.084;2022-12-18T05:44:16;15.90;20.70
21682;DHT22;11002;48.256;10.084;2022-12-18T05:46:43;15.80;20.60
21682;DHT22;11002;48.256;10.084;2022-12-18T05:49:11;15.90;20.70
21682;DHT22;11002;48.256;10.084;2022-12-18T05:51:38;15.90;20.70
21682;DHT22;11002;48.256;10.084;2022-12-18T05:54:05;15.80;20.60
21682;DHT22;11002;48.256;10.084;2022-12-18T05:56:34;15.90;20.70
21682;DHT22;11002;48.256;10.084;2022-12-18T05:59:01;15.90;20.70
21682;DHT22;11002;48.256;10.084;2022-12-18T06:01:29;15.90;20.70
21682;DHT22;11002;48.256;10.084;2022-12-18T06:03:56;15.80;20.60
21682;DHT22;11002;48.256;10.084;2022-12-18T06:06:25;15.80;20.60
21682;DHT22;11002;48.256;10.084;2022-12-18T06:08:53;15.90;20.70
21682;DHT22;11002;48.256;10.084;2022-12-18T06:11:22;15.80;20.60
21682;DHT22;11002;48.256;10.084;2022-12-18T06:13:52;15.90;20.70
21682;DHT22;11002;48.256;10.084;2022-12-18T06:16:19;15.80;20.60
21682;DHT22;11002;48.256;10.084;2022-12-18T06:18:47;15.90;20.70
21682;DHT22;11002;48.256;10.084;2022-12-18T06:21:14;15.80;20.60
21682;DHT22;11002;48.256;10.084;2022-12-18T06:23:41;15.90;20.70
21682;DHT22;11002;48.256;10.084;2022-12-18T06:26:11;15.90;20.70
21682;DHT22;11002;48.256;10.084;2022-12-18T06:28:38;15.90;20.70
21682;DHT22;11002;48.256;10.084;2022-12-18T06:31:07;15.80;20.60
21682;DHT22;11002;48.256;10.084;2022-12-18T06:33:35;15.80;20.60
21682;DHT22;11002;48.256;10.084;2022-12-18T06:36:04;15.90;20.70
21682;DHT22;11002;48.256;10.084;2022-12-18T06:38:33;15.90;20.70
21682;DHT22;11002;48.256;10.084;2022-12-18T06:41:06;15.90;20.70
21682;DHT22;11002;48.256;10.084;2022-12-18T06:43:33;15.90;20.70
21682;DHT22;11002;48.256;10.084;2022-12-18T06:46:01;15.90;20.70
21682;DHT22;11002;48.256;10.084;2022-12-18T06:48:31;15.90;20.70
21682;DHT22;11002;48.256;10.084;2022-12-18T06:50:58;15.80;20.60
21682;DHT22;11002;48.256;10.084;2022-12-18T06:53:26;15.90;20.70
21682;DHT22;11002;48.256;10.084;2022-12-18T06:55:58;15.90;20.70
21682;DHT22;11002;48.256;10.084;2022-12-18T06:58:27;15.90;20.70
21682;DHT22;11002;48.256;10.084;2022-12-18T07:00:59;15.80;20.60
21682;DHT22;11002;48.256;10.084;2022-12-18T07:03:27;15.90;20.70
21682;DHT22;11002;48.256;10.084;2022-12-18T07:05:56;15.90;20.70
21682;DHT22;11002;48.256;10.084;2022-12-18T07:08:23;15.90;20.70
21682;DHT22;11002;48.256;10.084;2022-12-18T07:10:51;15.80;20.60
21682;DHT22;11002;48.256;10.084;2022-12-18T07:13:19;15.90;20.70
21682;DHT22;11002;48.256;10.084;2022-12-18T07:15:47;15.90;20.70
21682;DHT22;11002;48.256;10.084;2022-12-18T07:18:14;15.90;20.70
21682;DHT22;11002;48.256;10.084;2022-12-18T07:20:41;15.90;20.70
21682;DHT22;11002;48.256;10.084;2022-12-18T07:23:11;15.80;20.60
21682;DHT22;11002;48.256;10.084;2022-12-18T07:25:38;15.90;20.70
21682;DHT22;11002;48.256;10.084;2022-12-18T07:28:06;15.90;20.70
21682;DHT22;11002;48.256;10.084;2022-12-18T07:30:36;15.90;20.70
21682;DHT22;11002;48.256;10.084;2022-12-18T07:33:03;15.90;20.70
21682;DHT22;11002;48.256;10.084;2022-12-18T07:35:32;15.90;20.80
21682;DHT22;11002;48.256;10.084;2022-12-18T07:38:00;15.90;20.70
21682;DHT22;11002;48.256;10.084;2022-12-18T07:40:30;15.90;20.70
21682;DHT22;11002;48.256;10.084;2022-12-18T07:42:57;15.90;20.70
21682;DHT22;11002;48.256;10.084;2022-12-18T07:45:25;15.90;20.70
21682;DHT22;11002;48.256;10.084;2022-12-18T07:47:52;15.90;20.70
21682;DHT22;11002;48.256;10.084;2022-12-18T07:50:20;15.90;20.70
21682;DHT22;11002;48.256;10.084;2022-12-18T07:52:47;15.90;20.70
21682;DHT22;11002;48.256;10.084;2022-12-18T07:55:15;15.80;20.60
21682;DHT22;11002;48.256;10.084;2022-12-18T07:57:43;15.90;20.70
21682;DHT22;11002;48.256;10.084;2022-12-18T08:00:12;15.90;21.20
21682;DHT22;11002;48.256;10.084;2022-12-18T08:02:40;15.90;20.70
21682;DHT22;11002;48.256;10.084;2022-12-18T08:05:11;15.90;20.70
21682;DHT22;11002;48.256;10.084;2022-12-18T08:07:39;15.90;20.70
21682;DHT22;11002;48.256;10.084;2022-12-18T08:10:08;15.90;20.70
21682;DHT22;11002;48.256;10.084;2022-12-18T08:12:35;15.90;20.70
21682;DHT22;11002;48.256;10.084;2022-12-18T08:15:05;15.90;20.70
21682;DHT22;11002;48.256;10.084;2022-12-18T08:17:32;15.90;20.70
21682;DHT22;11002;48.256;10.084;2022-12-18T08:20:00;15.90;20.70
21682;DHT22;11002;48.256;10.084;2022-12-18T08:22:27;15.90;20.70
21682;DHT22;11002;48.256;10.084;2022-12-18T08:24:55;15.90;20.70
21682;DHT22;11002;48.256;10.084;2022-12-18T08:27:22;15.90;20.70
21682;DHT22;11002;48.256;10.084;2022-12-18T08:29:50;15.90;20.70
21682;DHT22;11002;48.256;10.084;2022-12-18T08:32:18;15.90;20.80
21682;DHT22;11002;48.256;10.084;2022-12-18T08:34:46;15.90;20.70
21682;DHT22;11002;48.256;10.084;2022-12-18T08:37:13;15.90;21.20
21682;DHT22;11002;48.256;10.084;2022-12-18T08:39:41;15.90;20.70
21682;DHT22;11002;48.256;10.084;2022-12-18T08:42:08;15.90;20.70
21682;DHT22;11002;48.256;10.084;2022-12-18T08:44:53;15.90;20.70
21682;DHT22;11002;48.256;10.084;2022-12-18T08:47:21;15.90;20.70
21682;DHT22;11002;48.256;10.084;2022-12-18T08:49:49;15.90;20.70
21682;DHT22;11002;48.256;10.084;2022-12-18T08:52:16;15.90;20.70
21682;DHT22;11002;48.256;10.084;2022-12-18T08:54:44;15.90;20.70
21682;DHT22;11002;48.256;10.084;2022-12-18T08:57:11;15.90;20.70
21682;DHT22;11002;48.256;10.084;2022-12-18T08:59:38;15.90;20.70
21682;DHT22;11002;48.256;10.084;2022-12-18T09:02:07;15.90;20.70
21682;DHT22;11002;48.256;10.084;2022-12-18T09:04:36;15.90;20.70
21682;DHT22;11002;48.256;10.084;2022-12-18T09:07:05;15.90;20.70
21682;DHT22;11002;48.256;10.084;2022-12-18T09:09:33;15.90;20.70
21682;DHT22;11002;48.256;10.084;2022-12-18T09:12:00;15.90;20.70
21682;DHT22;11002;48.256;10.084;2022-12-18T09:14:27;15.90;20.70
21682;DHT22;11002;48.256;10.084;2022-12-18T09:16:55;15.90;20.70
21682;DHT22;11002;48.256;10.084;2022-12-18T09:19:22;15.90;20.70
21682;DHT22;11002;48.256;10.084;2022-12-18T09:21:51;15.90;20.70
21682;DHT22;11002;48.256;10.084;2022-12-18T09:24:19;15.90;20.70
21682;DHT22;11002;48.256;10.084;2022-12-18T09:26:46;15.90;20.70
21682;DHT22;11002;48.256;10.084;2022-12-18T09:29:14;15.90;20.70
21682;DHT22;11002;48.256;10.084;2022-12-18T09:31:42;15.90;20.70
21682;DHT22;11002;48.256;10.084;2022-12-18T09:34:13;15.90;20.70
21682;DHT22;11002;48.256;10.084;2022-12-18T09:36:40;15.90;20.70
21682;DHT22;11002;48.256;10.084;2022-12-18T09:39:09;15.90;20.70
21682;DHT22;11002;48.256;10.084;2022-12-18T09:41:43;15.90;20.70
21682;DHT22;11002;48.256;10.084;2022-12-18T09:44:15;15.90;20.70
21682;DHT22;11002;48.256;10.084;2022-12-18T09:46:47;15.90;20.70
21682;DHT22;11002;48.256;10.084;2022-12-18T09:49:18;15.90;20.70
21682;DHT22;11002;48.256;10.084;2022-12-18T09:51:54;15.90;20.70
21682;DHT22;11002;48.256;10.084;2022-12-18T09:54:30;15.90;20.70
21682;DHT22;11002;48.256;10.084;2022-12-18T09:56:59;15.90;20.70
21682;DHT22;11002;48.256;10.084;2022-12-18T09:59:32;15.90;20.70
21682;DHT22;11002;48.256;10.084;2022-12-18T10:02:15;15.90;20.70
21682;DHT22;11002;48.256;10.084;2022-12-18T10:04:43;15.90;20.70
21682;DHT22;11002;48.256;10.084;2022-12-18T10:07:17;15.90;20.70
21682;DHT22;11002;48.256;10.084;2022-12-18T10:09:49;15.90;20.70
21682;DHT22;11002;48.256;10.084;2022-12-18T10:12:23;15.90;20.70
21682;DHT22;11002;48.256;10.084;2022-12-18T10:14:58;15.90;20.70
21682;DHT22;11002;48.256;10.084;2022-12-18T10:17:34;15.90;20.70
21682;DHT22;11002;48.256;10.084;2022-12-18T10:20:09;15.90;20.70
21682;DHT22;11002;48.256;10.084;2022-12-18T10:22:59;15.90;20.70
21682;DHT22;11002;48.256;10.084;2022-12-18T10:25:34;15.90;20.70
21682;DHT22;11002;48.256;10.084;2022-12-18T10:28:10;15.90;20.70
21682;DHT22;11002;48.256;10.084;2022-12-18T10:30:39;15.90;20.70
21682;DHT22;11002;48.256;10.084;2022-12-18T10:33:10;15.90;20.70
21682;DHT22;11002;48.256;10.084;2022-12-18T10:35:41;15.90;19.40
21682;DHT22;11002;48.256;10.084;2022-12-18T10:38:22;15.80;18.40
21682;DHT22;11002;48.256;10.084;2022-12-18T10:40:55;15.70;17.70
21682;DHT22;11002;48.256;10.084;2022-12-18T10:43:25;15.70;17.90
21682;DHT22;11002;48.256;10.084;2022-12-18T10:48:53;15.60;17.60
21682;DHT22;11002;48.256;10.084;2022-12-18T10:51:24;15.60;17.40
21682;DHT22;11002;48.256;10.084;2022-12-18T10:53:54;15.70;16.70
21682;DHT22;11002;48.256;10.084;2022-12-18T10:56:26;15.70;16.10
21682;DHT22;11002;48.256;10.084;2022-12-18T10:58:59;15.70;16.00
21682;DHT22;11002;48.256;10.084;2022-12-18T11:01:27;15.60;16.50
21682;DHT22;11002;48.256;10.084;2022-12-18T11:04:07;15.50;16.40
21682;DHT22;11002;48.256;10.084;2022-12-18T11:06:53;15.50;16.50
21682;DHT22;11002;48.256;10.084;2022-12-18T11:09:22;15.50;16.40
21682;DHT22;11002;48.256;10.084;2022-12-18T11:11:52;15.50;15.60
21682;DHT22;11002;48.256;10.084;2022-12-18T11:14:23;15.60;17.10
21682;DHT22;11002;48.256;10.084;2022-12-18T11:16:52;15.60;16.60
21682;DHT22;11002;48.256;10.084;2022-12-18T11:19:26;15.70;17.00
21682;DHT22;11002;48.256;10.084;2022-12-18T11:21:55;15.70;17.90
21682;DHT22;11002;48.256;10.084;2022-12-18T11:24:27;15.80;18.90
21682;DHT22;11002;48.256;10.084;2022-12-18T11:26:58;15.80;18.60
21682;DHT22;11002;48.256;10.084;2022-12-18T11:29:34;15.80;17.90
21682;DHT22;11002;48.256;10.084;2022-12-18T11:32:35;15.80;17.90
21682;DHT22;11002;48.256;10.084;2022-12-18T11:35:14;15.80;17.90
21682;DHT22;11002;48.256;10.084;2022-12-18T11:37:47;15.90;17.60
21682;DHT22;11002;48.256;10.084;2022-12-18T11:40:18;15.90;18.30
21682;DHT22;11002;48.256;10.084;2022-12-18T11:42:53;15.90;18.20
21682;DHT22;11002;48.256;10.084;2022-12-18T11:45:27;15.90;18.10
21682;DHT22;11002;48.256;10.084;2022-12-18T11:48:03;15.90;18.40
21682;DHT22;11002;48.256;10.084;2022-12-18T11:50:38;16.00;19.40
21682;DHT22;11002;48.256;10.084;2022-12-18T11:53:11;16.00;19.20
21682;DHT22;11002;48.256;10.084;2022-12-18T11:55:43;16.00;19.10
21682;DHT22;11002;48.256;10.084;2022-12-18T11:58:23;16.00;19.10
21682;DHT22;11002;48.256;10.084;2022-12-18T12:01:00;16.00;19.20
21682;DHT22;11002;48.256;10.084;2022-12-18T12:03:44;16.00;19.10
21682;DHT22;11002;48.256;10.084;2022-12-18T12:06:17;16.00;19.40
21682;DHT22;11002;48.256;10.084;2022-12-18T12:08:57;16.00;19.20
21682;DHT22;11002;48.256;10.084;2022-12-18T12:11:33;16.00;19.30
21682;DHT22;11002;48.256;10.084;2022-12-18T12:14:16;16.00;19.40
21682;DHT22;11002;48.256;10.084;2022-12-18T12:16:52;16.10;19.60
21682;DHT22;11002;48.256;10.084;2022-12-18T12:19:35;16.10;19.70
21682;DHT22;11002;48.256;10.084;2022-12-18T12:22:12;16.10;19.80
21682;DHT22;11002;48.256;10.084;2022-12-18T12:24:52;16.10;19.70
21682;DHT22;11002;48.256;10.084;2022-12-18T12:27:29;16.10;19.60
21682;DHT22;11002;48.256;10.084;2022-12-18T12:30:02;16.10;19.70
21682;DHT22;11002;48.256;10.084;2022-12-18T12:32:44;16.10;20.20
21682;DHT22;11002;48.256;10.084;2022-12-18T12:35:25;16.10;20.30
21682;DHT22;11002;48.256;10.084;2022-12-18T12:38:04;16.10;20.80
21682;DHT22;11002;48.256;10.084;2022-12-18T12:40:34;16.10;20.80
21682;DHT22;11002;48.256;10.084;2022-12-18T12:43:10;16.10;20.80
21682;DHT22;11002;48.256;10.084;2022-12-18T12:45:47;16.10;20.80
21682;DHT22;11002;48.256;10.084;2022-12-18T12:48:19;16.20;20.90
21682;DHT22;11002;48.256;10.084;2022-12-18T12:50:48;16.10;20.80
21682;DHT22;11002;48.256;10.084;2022-12-18T12:53:23;16.20;20.90
21682;DHT22;11002;48.256;10.084;2022-12-18T12:55:52;16.10;20.80
21682;DHT22;11002;48.256;10.084;2022-12-18T12:58:28;16.10;20.80
21682;DHT22;11002;48.256;10.084;2022-12-18T13:01:09;16.10;20.80
21682;DHT22;11002;48.256;10.084;2022-12-18T13:03:43;16.10;20.80
21682;DHT22;11002;48.256;10.084;2022-12-18T13:06:18;16.20;20.90
21682;DHT22;11002;48.256;10.084;2022-12-18T13:08:55;16.20;20.90
21682;DHT22;11002;48.256;10.084;2022-12-18T13:11:37;16.20;20.90
21682;DHT22;11002;48.256;10.084;2022-12-18T13:14:28;16.20;20.90
21682;DHT22;11002;48.256;10.084;2022-12-18T13:17:26;16.20;20.90
21682;DHT22;11002;48.256;10.084;2022-12-18T13:20:10;16.20;20.90
21682;DHT22;11002;48.256;10.084;2022-12-18T13:22:40;16.20;20.90
21682;DHT22;11002;48.256;10.084;2022-12-18T13:25:29;16.20;20.90
21682;DHT22;11002;48.256;10.084;2022-12-18T13:28:02;16.20;20.90
21682;DHT22;11002;48.256;10.084;2022-12-18T13:30:53;16.20;20.90
21682;DHT22;11002;48.256;10.084;2022-12-18T13:33:41;16.30;21.00
21682;DHT22;11002;48.256;10.084;2022-12-18T13:36:23;16.30;20.90
21682;DHT22;11002;48.256;10.084;2022-12-18T13:45:45;16.30;20.90
21682;DHT22;11002;48.256;10.084;2022-12-18T13:48:21;16.30;20.90
21682;DHT22;11002;48.256;10.084;2022-12-18T13:51:02;16.30;20.90
21682;DHT22;11002;48.256;10.084;2022-12-18T13:53:36;16.30;20.90
21682;DHT22;11002;48.256;10.084;2022-12-18T13:56:04;16.30;20.90
21682;DHT22;11002;48.256;10.084;2022-12-18T13:58:32;16.20;20.90
21682;DHT22;11002;48.256;10.084;2022-12-18T14:01:00;16.20;20.90
21682;DHT22;11002;48.256;10.084;2022-12-18T14:03:30;16.20;20.90
21682;DHT22;11002;48.256;10.084;2022-12-18T14:06:05;16.20;20.80
21682;DHT22;11002;48.256;10.084;2022-12-18T14:08:39;16.20;20.90
21682;DHT22;11002;48.256;10.084;2022-12-18T14:11:07;16.20;20.90
21682;DHT22;11002;48.256;10.084;2022-12-18T14:13:46;16.20;20.90
21682;DHT22;11002;48.256;10.084;2022-12-18T14:16:15;16.10;20.80
21682;DHT22;11002;48.256;10.084;2022-12-18T14:18:45;16.10;20.60
21682;DHT22;11002;48.256;10.084;2022-12-18T14:21:24;16.10;20.40
21682;DHT22;11002;48.256;10.084;2022-12-18T14:24:05;16.10;20.40
21682;DHT22;11002;48.256;10.084;2022-12-18T14:26:32;16.10;20.20
21682;DHT22;11002;48.256;10.084;2022-12-18T14:29:01;16.10;20.20
21682;DHT22;11002;48.256;10.084;2022-12-18T14:31:44;16.10;20.20
21682;DHT22;11002;48.256;10.084;2022-12-18T14:34:15;16.10;20.40
21682;DHT22;11002;48.256;10.084;2022-12-18T14:36:52;16.10;20.40
21682;DHT22;11002;48.256;10.084;2022-12-18T14:39:19;16.00;20.50
21682;DHT22;11002;48.256;10.084;2022-12-18T14:41:49;16.00;20.60
21682;DHT22;11002;48.256;10.084;2022-12-18T14:44:16;16.00;20.40
21682;DHT22;11002;48.256;10.084;2022-12-18T14:46:44;16.00;20.20
21682;DHT22;11002;48.256;10.084;2022-12-18T14:49:20;16.00;20.20
21682;DHT22;11002;48.256;10.084;2022-12-18T14:51:52;16.00;20.80
21682;DHT22;11002;48.256;10.084;2022-12-18T14:54:21;16.00;20.30
21682;DHT22;11002;48.256;10.084;2022-12-18T14:56:51;16.00;20.30
21682;DHT22;11002;48.256;10.084;2022-12-18T14:59:23;16.00;20.60
21682;DHT22;11002;48.256;10.084;2022-12-18T15:02:03;16.00;20.50
21682;DHT22;11002;48.256;10.084;2022-12-18T15:04:33;16.00;20.50
21682;DHT22;11002;48.256;10.084;2022-12-18T15:07:09;16.00;20.30
21682;DHT22;11002;48.256;10.084;2022-12-18T15:09:39;16.00;20.30
21682;DHT22;11002;48.256;10.084;2022-12-18T15:12:22;16.00;20.30
21682;DHT22;11002;48.256;10.084;2022-12-18T15:14:51;16.00;20.40
21682;DHT22;11002;48.256;10.084;2022-12-18T15:17:20;16.00;20.50
21682;DHT22;11002;48.256;10.084;2022-12-18T15:19:50;16.00;20.20
21682;DHT22;11002;48.256;10.084;2022-12-18T15:22:26;16.00;20.40
21682;DHT22;11002;48.256;10.084;2022-12-18T15:24:55;16.00;20.50
21682;DHT22;11002;48.256;10.084;2022-12-18T15:27:26;16.00;20.40
21682;DHT22;11002;48.256;10.084;2022-12-18T15:30:17;16.00;20.30
21682;DHT22;11002;48.256;10.084;2022-12-18T15:32:45;16.00;20.20
21682;DHT22;11002;48.256;10.084;2022-12-18T15:35:18;16.00;20.20
21682;DHT22;11002;48.256;10.084;2022-12-18T15:37:48;16.00;20.20
21682;DHT22;11002;48.256;10.084;2022-12-18T15:40:17;15.90;20.20
21682;DHT22;11002;48.256;10.084;2022-12-18T15:42:45;15.90;20.10
21682;DHT22;11002;48.256;10.084;2022-12-18T15:45:30;15.90;20.40
21682;DHT22;11002;48.256;10.084;2022-12-18T15:47:58;15.90;20.50
21682;DHT22;11002;48.256;10.084;2022-12-18T15:50:25;15.90;20.60